Linda Fortune — 3FOW6 — position and weather

sailwx.info

Track history (hours):
 
Tides and Currents Weather Stations Pressure Air Temp Water Temp Dewpoint Dewpoint Depression Visibility Wind Speed Wind Dir Waves Ship Positions

Linda Fortune

Last reported at 2016-Dec-24 20:26 UTC. Time now 2017-Jan-18 16:15 UTC.
Position N 33°56' E 135°02'.
Warning: this ship's position is 24 days out of date.

Length 281 m; draft 10.5 m.

Type: Cargo ship. MMSI: 352793000.

Date/timePositionNaut miles runAvg speedWind from/ knotsBaromVisibWave heightAir tempDewpointWater temp
2016-Dec-24 20:26N 33°56' E 135°02'0 0.0
2016-Dec-24 19:08N 33°56' E 135°02'0 0.0
2016-Dec-24 18:29N 33°56' E 135°02'0 0.0
2016-Dec-24 17:26N 33°56' E 135°02'0 0.0
2016-Dec-24 16:26N 33°56' E 135°02'0 0.1
2016-Dec-24 09:24N 33°56' E 135°02'5 6.1
2016-Dec-24 08:33N 34°01' E 135°01'1212.4
2016-Dec-24 07:33N 34°13' E 134°58'1313.4
2016-Dec-24 06:34N 34°26' E 135°02'9 8.8
2016-Dec-24 05:33N 34°35' E 135°05'1312.7
2016-Dec-24 04:33N 34°34' E 134°50'  
2016-Dec-15 20:27N 34°33' E 134°47'1111.4
2016-Dec-15 19:31N 34°38' E 134°59'7 7.6
2016-Dec-15 18:33N 34°34' E 135°07'6 6.2
2016-Dec-15 17:33N 34°28' E 135°06'1211.6
2016-Dec-15 16:33N 34°18' E 134°59'9 9.2
2016-Dec-15 15:33N 34°09' E 134°59'6 6.0
2016-Dec-15 14:33N 34°03' E 134°58'9 8.5
2016-Dec-15 13:32N 33°54' E 134°58'  
Track history (hours):
 
Tides and Currents Weather Stations Pressure Air Temp Water Temp Dewpoint Dewpoint Depression Visibility Wind Speed Wind Dir Waves Ship Positions

Linda Fortune

Last reported at 2016-Dec-24 20:26 UTC. Time now 2017-Jan-18 16:15 UTC.
Position N 33°56' E 135°02'.
Warning: this ship's position is 24 days out of date.

Length 281 m; draft 10.5 m.

Type: Cargo ship. MMSI: 352793000.

Date/timePositionNaut miles runAvg speedWind from/ knotsBaromVisibWave heightAir tempDewpointWater temp
2016-Dec-24 20:26N 33°56' E 135°02'0 0.0
2016-Dec-24 19:08N 33°56' E 135°02'0 0.0
2016-Dec-24 18:29N 33°56' E 135°02'0 0.0
2016-Dec-24 17:26N 33°56' E 135°02'0 0.0
2016-Dec-24 16:26N 33°56' E 135°02'0 0.1
2016-Dec-24 09:24N 33°56' E 135°02'5 6.1
2016-Dec-24 08:33N 34°01' E 135°01'1212.4
2016-Dec-24 07:33N 34°13' E 134°58'1313.4
2016-Dec-24 06:34N 34°26' E 135°02'9 8.8
2016-Dec-24 05:33N 34°35' E 135°05'1312.7
2016-Dec-24 04:33N 34°34' E 134°50'  
2016-Dec-15 20:27N 34°33' E 134°47'1111.4
2016-Dec-15 19:31N 34°38' E 134°59'7 7.6
2016-Dec-15 18:33N 34°34' E 135°07'6 6.2
2016-Dec-15 17:33N 34°28' E 135°06'1211.6
2016-Dec-15 16:33N 34°18' E 134°59'9 9.2
2016-Dec-15 15:33N 34°09' E 134°59'6 6.0
2016-Dec-15 14:33N 34°03' E 134°58'9 8.5
2016-Dec-15 13:32N 33°54' E 134°58'  

Dump ship's entire track history